createdAt,value
2023-04-14T00:01:22.839Z,99787.00
2023-04-14T00:03:52.459Z,99785.00
2023-04-14T00:06:20.761Z,99790.00
2023-04-14T00:08:48.902Z,99793.00
2023-04-14T00:11:16.920Z,99813.00
2023-04-14T00:13:45.080Z,99810.00
2023-04-14T00:16:13.428Z,99803.00
2023-04-14T00:18:41.569Z,99798.00
2023-04-14T00:21:13.589Z,99806.00
2023-04-14T00:23:43.917Z,99802.00
2023-04-14T00:26:12.343Z,99808.00
2023-04-14T00:28:43.853Z,99808.00
2023-04-14T00:31:12.983Z,99811.00
2023-04-14T00:33:41.261Z,99819.00
2023-04-14T00:36:09.610Z,99810.00
2023-04-14T00:38:38.213Z,99804.00
2023-04-14T00:41:06.490Z,99804.00
2023-04-14T00:43:34.872Z,99802.00
2023-04-14T00:46:03.719Z,99803.00
2023-04-14T00:48:31.928Z,99795.00
2023-04-14T00:50:59.932Z,99799.00
2023-04-14T00:53:29.052Z,99800.00
2023-04-14T00:55:57.424Z,99795.00
2023-04-14T00:58:26.537Z,99797.00
2023-04-14T01:00:59.913Z,99803.00
2023-04-14T01:03:31.194Z,99798.00
2023-04-14T01:05:59.600Z,99800.00
2023-04-14T01:08:28.228Z,99800.00
2023-04-14T01:11:11.594Z,99799.00
2023-04-14T01:13:44.207Z,99805.00
2023-04-14T01:16:34.763Z,99800.00
2023-04-14T01:19:30.294Z,99804.00
2023-04-14T01:22:05.229Z,99807.00
2023-04-14T01:24:58.153Z,99804.00
2023-04-14T01:27:54.908Z,99801.00
2023-04-14T01:30:36.078Z,99799.00
2023-04-14T01:33:08.918Z,99805.00
2023-04-14T01:35:45.827Z,99801.00
2023-04-14T01:38:20.057Z,99801.00
2023-04-14T01:40:52.524Z,99804.00
2023-04-14T01:43:26.555Z,99805.00
2023-04-14T01:45:58.822Z,99800.00
2023-04-14T01:48:27.676Z,99809.00
2023-04-14T01:50:56.463Z,99818.00
2023-04-14T01:53:27.752Z,99808.00
2023-04-14T01:55:57.240Z,99819.00
2023-04-14T01:58:26.822Z,99813.00
2023-04-14T02:00:58.638Z,99808.00
2023-04-14T02:03:27.134Z,99807.00
2023-04-14T02:05:55.961Z,99820.00
2023-04-14T02:08:25.140Z,99818.00
2023-04-14T02:10:54.731Z,99812.00
2023-04-14T02:13:23.289Z,99806.00
2023-04-14T02:15:52.401Z,99808.00
2023-04-14T02:18:23.861Z,99807.00
2023-04-14T02:20:52.977Z,99795.00
2023-04-14T02:23:21.308Z,99795.00
2023-04-14T02:25:57.900Z,99805.00
2023-04-14T02:28:33.023Z,99808.00
2023-04-14T02:31:05.643Z,99805.00
2023-04-14T02:33:37.267Z,99798.00
2023-04-14T02:36:28.543Z,99808.00
2023-04-14T02:38:59.969Z,99809.00
2023-04-14T02:41:29.424Z,99813.00
2023-04-14T02:44:25.242Z,99821.00
2023-04-14T02:47:07.208Z,99825.00
2023-04-14T02:49:43.860Z,99830.00
2023-04-14T02:52:12.975Z,99832.00
2023-04-14T02:54:43.647Z,99828.00
2023-04-14T02:57:13.089Z,99826.00
2023-04-14T02:59:46.973Z,99826.00
2023-04-14T03:02:15.932Z,99824.00
2023-04-14T03:04:48.172Z,99828.00
2023-04-14T03:07:29.629Z,99830.00
2023-04-14T03:09:58.604Z,99823.00
2023-04-14T03:12:26.887Z,99826.00
2023-04-14T03:14:58.647Z,99822.00
2023-04-14T03:17:27.440Z,99828.00
2023-04-14T03:19:56.773Z,99827.00
2023-04-14T03:22:29.124Z,99833.00
2023-04-14T03:25:01.021Z,99830.00
2023-04-14T03:27:32.862Z,99833.00
2023-04-14T03:30:04.642Z,99822.00
2023-04-14T03:32:41.835Z,99821.00
2023-04-14T03:35:15.375Z,99813.00
2023-04-14T03:37:44.328Z,99820.00
2023-04-14T03:40:14.929Z,99818.00
2023-04-14T03:42:47.247Z,99812.00
2023-04-14T03:45:21.423Z,99818.00
2023-04-14T03:47:50.332Z,99807.00
2023-04-14T03:50:21.676Z,99819.00
2023-04-14T03:52:52.880Z,99811.00
2023-04-14T03:55:21.202Z,99811.00
2023-04-14T03:57:50.346Z,99817.00
2023-04-14T04:00:20.049Z,99808.00
2023-04-14T04:03:18.723Z,99806.00
2023-04-14T04:05:47.673Z,99805.00
2023-04-14T04:08:17.188Z,99808.00
2023-04-14T04:10:46.301Z,99806.00
2023-04-14T04:13:19.803Z,99807.00
2023-04-14T04:15:53.883Z,99811.00
2023-04-14T04:18:24.127Z,99813.00
2023-04-14T04:20:54.269Z,99819.00
2023-04-14T04:23:23.059Z,99826.00
2023-04-14T04:25:52.454Z,99828.00
2023-04-14T04:28:39.006Z,99823.00
2023-04-14T04:31:07.326Z,99828.00
2023-04-14T04:33:36.093Z,99830.00
2023-04-14T04:36:06.755Z,99823.00
2023-04-14T04:38:40.885Z,99836.00
2023-04-14T04:41:09.129Z,99836.00
2023-04-14T04:43:37.443Z,99833.00
2023-04-14T04:46:05.589Z,99843.00
2023-04-14T04:48:34.056Z,99833.00
2023-04-14T04:51:02.178Z,99838.00
2023-04-14T04:53:33.349Z,99841.00
2023-04-14T04:56:01.516Z,99847.00
2023-04-14T04:58:30.021Z,99842.00
2023-04-14T05:00:58.365Z,99840.00
2023-04-14T05:03:26.756Z,99843.00
2023-04-14T05:05:55.469Z,99841.00
2023-04-14T05:08:24.201Z,99840.00
2023-04-14T05:10:52.429Z,99844.00
2023-04-14T05:13:20.413Z,99839.00
2023-04-14T05:15:48.811Z,99845.00
2023-04-14T05:18:20.961Z,99829.00
2023-04-14T05:20:49.014Z,99838.00
2023-04-14T05:23:17.265Z,99832.00
2023-04-14T05:25:47.497Z,99834.00
2023-04-14T05:28:17.036Z,99834.00
2023-04-14T05:30:49.959Z,99836.00
2023-04-14T05:33:21.267Z,99836.00
2023-04-14T05:35:51.551Z,99845.00
2023-04-14T05:38:20.612Z,99850.00
2023-04-14T05:40:52.459Z,99842.00
2023-04-14T05:43:20.363Z,99846.00
2023-04-14T05:45:48.486Z,99848.00
2023-04-14T05:48:17.421Z,99854.00
2023-04-14T05:50:45.802Z,99844.00
2023-04-14T05:53:13.862Z,99853.00
2023-04-14T05:55:42.173Z,99851.00
2023-04-14T05:58:10.318Z,99848.00
2023-04-14T06:00:41.369Z,99851.00
2023-04-14T06:03:12.400Z,99854.00
2023-04-14T06:05:40.667Z,99854.00
2023-04-14T06:08:08.568Z,99853.00
2023-04-14T06:10:36.739Z,99856.00
2023-04-14T06:13:07.678Z,99855.00
2023-04-14T06:15:37.824Z,99863.00
2023-04-14T06:18:06.800Z,99849.00
2023-04-14T06:20:36.519Z,99850.00
2023-04-14T06:23:05.923Z,99846.00
2023-04-14T06:25:39.534Z,99848.00
2023-04-14T06:28:08.100Z,99843.00
2023-04-14T06:30:36.483Z,99842.00
2023-04-14T06:33:05.194Z,99841.00
2023-04-14T06:35:35.395Z,99833.00
2023-04-14T06:38:04.077Z,99834.00
2023-04-14T06:40:32.478Z,99835.00
2023-04-14T06:43:00.546Z,99836.00
2023-04-14T06:45:29.315Z,99831.00
2023-04-14T06:47:57.761Z,99822.00
2023-04-14T06:50:26.100Z,99832.00
2023-04-14T06:52:54.090Z,99825.00
2023-04-14T06:55:22.157Z,99822.00
2023-04-14T06:57:50.520Z,99821.00
2023-04-14T07:00:19.267Z,99837.00
2023-04-14T07:02:47.429Z,99837.00
2023-04-14T07:05:15.486Z,99834.00
2023-04-14T07:07:49.637Z,99842.00
2023-04-14T07:10:18.384Z,99836.00
2023-04-14T07:12:46.576Z,99835.00
2023-04-14T07:15:14.953Z,99836.00
2023-04-14T07:17:43.599Z,99838.00
2023-04-14T07:20:12.357Z,99838.00
2023-04-14T07:22:41.038Z,99841.00
2023-04-14T07:25:09.353Z,99846.00
2023-04-14T07:27:37.364Z,99838.00
2023-04-14T07:30:07.134Z,99841.00
2023-04-14T07:32:35.777Z,99846.00
2023-04-14T07:35:04.345Z,99844.00
2023-04-14T07:37:33.031Z,99845.00
2023-04-14T07:40:01.877Z,99847.00
2023-04-14T07:42:31.168Z,99851.00
2023-04-14T07:44:59.661Z,99849.00
2023-04-14T07:47:28.858Z,99854.00
2023-04-14T07:49:58.565Z,99848.00
2023-04-14T07:52:27.073Z,99851.00
2023-04-14T07:54:55.425Z,99850.00
2023-04-14T07:57:23.756Z,99851.00
2023-04-14T07:59:52.006Z,99844.00
2023-04-14T08:02:20.970Z,99849.00
2023-04-14T08:04:49.454Z,99852.00
2023-04-14T08:07:17.485Z,99847.00
2023-04-14T08:09:45.753Z,99851.00
2023-04-14T08:12:13.797Z,99842.00
2023-04-14T08:14:42.477Z,99841.00
2023-04-14T08:17:10.736Z,99843.00
2023-04-14T08:19:38.946Z,99852.00
2023-04-14T08:22:07.125Z,99853.00
2023-04-14T08:24:37.673Z,99856.00
2023-04-14T08:27:06.170Z,99855.00
2023-04-14T08:29:34.410Z,99860.00
2023-04-14T08:32:03.538Z,99850.00
2023-04-14T08:34:32.754Z,99859.00
2023-04-14T08:37:01.039Z,99865.00
2023-04-14T08:39:29.474Z,99873.00
2023-04-14T08:41:58.796Z,99875.00
2023-04-14T08:44:27.224Z,99874.00
2023-04-14T08:46:57.494Z,99875.00
2023-04-14T08:49:43.125Z,99868.00
2023-04-14T08:52:14.145Z,99861.00
2023-04-14T08:54:43.057Z,99859.00
2023-04-14T08:57:13.145Z,99860.00
2023-04-14T08:59:42.661Z,99853.00
2023-04-14T09:02:12.475Z,99855.00
2023-04-14T09:04:40.807Z,99852.00
2023-04-14T09:07:09.569Z,99856.00
2023-04-14T09:09:37.813Z,99855.00
2023-04-14T09:12:06.318Z,99844.00
2023-04-14T09:14:34.820Z,99836.00
2023-04-14T09:17:03.244Z,99835.00
2023-04-14T09:19:32.932Z,99832.00
2023-04-14T09:22:01.600Z,99837.00
2023-04-14T09:24:32.401Z,99832.00
2023-04-14T09:27:07.969Z,99826.00
2023-04-14T09:29:36.846Z,99826.00
2023-04-14T09:32:07.504Z,99826.00
2023-04-14T09:34:36.670Z,99827.00
2023-04-14T09:37:06.619Z,99838.00
2023-04-14T09:39:37.698Z,99840.00
2023-04-14T09:42:06.840Z,99835.00
2023-04-14T09:44:35.757Z,99848.00
2023-04-14T09:47:07.058Z,99843.00
2023-04-14T09:49:37.732Z,99846.00
2023-04-14T09:52:10.212Z,99840.00
2023-04-14T09:54:44.282Z,99843.00
2023-04-14T09:57:12.496Z,99838.00
2023-04-14T09:59:40.938Z,99842.00
2023-04-14T10:02:12.650Z,99855.00
2023-04-14T10:04:41.276Z,99846.00
2023-04-14T10:07:11.490Z,99847.00
2023-04-14T10:09:44.555Z,99848.00
2023-04-14T10:12:18.562Z,99850.00
2023-04-14T10:14:46.773Z,99850.00
2023-04-14T10:17:15.073Z,99851.00
2023-04-14T10:19:43.510Z,99843.00
2023-04-14T10:22:12.529Z,99846.00
2023-04-14T10:24:42.318Z,99835.00
2023-04-14T10:27:10.324Z,99834.00
2023-04-14T10:29:42.558Z,99826.00
2023-04-14T10:32:11.358Z,99826.00
2023-04-14T10:34:42.586Z,99830.00
2023-04-14T10:37:17.678Z,99831.00
2023-04-14T10:39:59.396Z,99832.00
2023-04-14T10:42:29.439Z,99835.00
2023-04-14T10:45:08.741Z,99829.00
2023-04-14T10:47:41.810Z,99826.00
2023-04-14T10:50:20.588Z,99824.00
2023-04-14T10:52:57.114Z,99826.00
2023-04-14T10:55:28.746Z,99824.00
2023-04-14T10:58:06.932Z,99826.00
2023-04-14T11:00:39.562Z,99817.00
2023-04-14T11:03:19.776Z,99812.00
2023-04-14T11:05:54.267Z,99813.00
2023-04-14T11:08:38.939Z,99826.00
2023-04-14T11:11:08.347Z,99827.00
2023-04-14T11:13:38.989Z,99817.00
2023-04-14T11:16:11.084Z,99823.00
2023-04-14T11:18:46.279Z,99828.00
2023-04-14T11:21:16.557Z,99823.00
2023-04-14T11:23:45.004Z,99825.00
2023-04-14T11:26:19.293Z,99826.00
2023-04-14T11:28:47.911Z,99820.00
2023-04-14T11:31:17.863Z,99810.00
2023-04-14T11:33:46.532Z,99817.00
2023-04-14T11:36:18.344Z,99821.00
2023-04-14T11:38:47.576Z,99826.00
2023-04-14T11:41:17.018Z,99823.00
2023-04-14T11:43:47.247Z,99822.00
2023-04-14T11:46:16.581Z,99825.00
2023-04-14T11:48:45.284Z,99825.00
2023-04-14T11:51:13.577Z,99829.00
2023-04-14T11:53:44.625Z,99818.00
2023-04-14T11:56:13.432Z,99823.00
2023-04-14T11:58:41.838Z,99813.00
2023-04-14T12:01:12.639Z,99808.00
2023-04-14T12:03:44.461Z,99807.00
2023-04-14T12:06:12.722Z,99803.00
2023-04-14T12:08:41.445Z,99803.00
2023-04-14T12:11:13.796Z,99796.00
2023-04-14T12:13:46.382Z,99799.00
2023-04-14T12:16:15.773Z,99797.00
2023-04-14T12:18:44.932Z,99793.00
2023-04-14T12:21:19.042Z,99794.00
2023-04-14T12:23:48.835Z,99788.00
2023-04-14T12:26:18.300Z,99786.00
2023-04-14T12:28:46.482Z,99768.00
2023-04-14T12:31:14.891Z,99767.00
2023-04-14T12:33:46.209Z,99766.00
2023-04-14T12:36:15.657Z,99770.00
2023-04-14T12:38:49.092Z,99778.00
2023-04-14T12:41:26.832Z,99767.00
2023-04-14T12:43:54.803Z,99770.00
2023-04-14T12:46:26.989Z,99762.00
2023-04-14T12:48:55.620Z,99761.00
2023-04-14T12:51:23.681Z,99756.00
2023-04-14T12:53:52.567Z,99756.00
2023-04-14T12:56:24.496Z,99757.00
2023-04-14T12:58:52.635Z,99747.00
2023-04-14T13:01:25.030Z,99741.00
2023-04-14T13:03:58.066Z,99731.00
2023-04-14T13:06:27.790Z,99730.00
2023-04-14T13:08:57.821Z,99738.00
2023-04-14T13:11:26.136Z,99749.00
2023-04-14T13:13:54.719Z,99745.00
2023-04-14T13:16:26.425Z,99740.00
2023-04-14T13:18:59.834Z,99738.00
2023-04-14T13:21:28.653Z,99732.00
2023-04-14T13:23:57.273Z,99733.00
2023-04-14T13:26:28.663Z,99731.00
2023-04-14T13:28:56.962Z,99725.00
2023-04-14T13:31:25.043Z,99733.00
2023-04-14T13:33:53.169Z,99737.00
2023-04-14T13:36:20.982Z,99734.00
2023-04-14T13:38:49.019Z,99731.00
2023-04-14T13:41:19.733Z,99718.00
2023-04-14T13:43:48.533Z,99717.00
2023-04-14T13:46:19.061Z,99714.00
2023-04-14T13:48:47.957Z,99718.00
2023-04-14T13:51:20.659Z,99716.00
2023-04-14T13:53:48.694Z,99712.00
2023-04-14T13:56:20.072Z,99704.00
2023-04-14T13:58:48.162Z,99704.00
2023-04-14T14:01:16.745Z,99710.00
2023-04-14T14:03:45.926Z,99702.00
2023-04-14T14:06:15.235Z,99707.00
2023-04-14T14:08:43.863Z,99708.00
2023-04-14T14:11:12.932Z,99706.00
2023-04-14T14:13:41.525Z,99700.00
2023-04-14T14:16:10.865Z,99716.00
2023-04-14T14:18:39.506Z,99714.00
2023-04-14T14:21:07.926Z,99707.00
2023-04-14T14:23:36.995Z,99704.00
2023-04-14T14:26:05.162Z,99709.00
2023-04-14T14:28:34.055Z,99711.00
2023-04-14T14:31:02.360Z,99708.00
2023-04-14T14:33:31.236Z,99714.00
2023-04-14T14:35:59.721Z,99709.00
2023-04-14T14:38:27.789Z,99706.00
2023-04-14T14:40:56.670Z,99708.00
2023-04-14T14:43:25.784Z,99701.00
2023-04-14T14:45:53.885Z,99699.00
2023-04-14T14:48:22.552Z,99705.00
2023-04-14T14:50:50.759Z,99695.00
2023-04-14T14:53:19.269Z,99699.00
2023-04-14T14:55:47.226Z,99698.00
2023-04-14T14:58:15.872Z,99699.00
2023-04-14T15:00:43.896Z,99693.00
2023-04-14T15:03:13.779Z,99700.00
2023-04-14T15:05:42.511Z,99697.00
2023-04-14T15:08:10.901Z,99702.00
2023-04-14T15:10:41.660Z,99688.00
2023-04-14T15:13:10.454Z,99698.00
2023-04-14T15:15:39.336Z,99698.00
2023-04-14T15:18:08.235Z,99694.00
2023-04-14T15:20:37.151Z,99693.00
2023-04-14T15:23:08.520Z,99688.00
2023-04-14T15:25:37.023Z,99697.00
2023-04-14T15:28:08.791Z,99700.00
2023-04-14T15:30:36.984Z,99699.00
2023-04-14T15:33:08.571Z,99696.00
2023-04-14T15:35:38.890Z,99691.00
2023-04-14T15:38:15.096Z,99696.00
2023-04-14T15:40:44.036Z,99701.00
2023-04-14T15:43:13.241Z,99702.00
2023-04-14T15:45:44.193Z,99697.00
2023-04-14T15:48:15.381Z,99692.00
2023-04-14T15:50:45.176Z,99690.00
2023-04-14T15:53:13.605Z,99691.00
2023-04-14T15:55:41.794Z,99691.00
2023-04-14T15:58:10.168Z,99691.00
2023-04-14T16:00:38.572Z,99695.00
2023-04-14T16:03:07.373Z,99690.00
2023-04-14T16:05:35.907Z,99687.00
2023-04-14T16:08:04.518Z,99687.00
2023-04-14T16:10:32.982Z,99685.00
2023-04-14T16:13:02.183Z,99687.00
2023-04-14T16:15:31.717Z,99694.00
2023-04-14T16:18:00.958Z,99696.00
2023-04-14T16:20:29.526Z,99698.00
2023-04-14T16:22:57.776Z,99698.00
2023-04-14T16:25:31.687Z,99685.00
2023-04-14T16:27:59.751Z,99691.00
2023-04-14T16:30:28.112Z,99692.00
2023-04-14T16:32:57.354Z,99693.00
2023-04-14T16:35:26.206Z,99693.00
2023-04-14T16:37:54.285Z,99695.00
2023-04-14T16:40:22.634Z,99699.00
2023-04-14T16:42:51.415Z,99699.00
2023-04-14T16:45:19.791Z,99699.00
2023-04-14T16:47:48.969Z,99706.00
2023-04-14T16:50:20.551Z,99704.00
2023-04-14T16:52:48.592Z,99709.00
2023-04-14T16:55:16.872Z,99706.00
2023-04-14T16:57:44.851Z,99713.00
2023-04-14T17:00:14.153Z,99719.00
2023-04-14T17:02:42.815Z,99714.00
2023-04-14T17:05:13.224Z,99713.00
2023-04-14T17:07:42.389Z,99716.00
2023-04-14T17:10:10.862Z,99707.00
2023-04-14T17:12:39.206Z,99709.00
2023-04-14T17:15:07.962Z,99707.00
2023-04-14T17:17:37.074Z,99700.00
2023-04-14T17:20:06.658Z,99704.00
2023-04-14T17:22:37.236Z,99711.00
2023-04-14T17:25:06.775Z,99713.00
2023-04-14T17:27:35.031Z,99715.00
2023-04-14T17:30:05.084Z,99725.00
2023-04-14T17:32:33.865Z,99726.00
2023-04-14T17:35:04.111Z,99726.00
2023-04-14T17:37:32.380Z,99726.00
2023-04-14T17:40:00.981Z,99723.00
2023-04-14T17:42:28.869Z,99733.00
2023-04-14T17:44:57.084Z,99730.00
2023-04-14T17:47:25.624Z,99730.00
2023-04-14T17:49:54.927Z,99738.00
2023-04-14T17:52:23.182Z,99740.00
2023-04-14T17:54:52.020Z,99738.00
2023-04-14T17:57:20.059Z,99743.00
2023-04-14T17:59:48.877Z,99741.00
2023-04-14T18:02:17.075Z,99738.00
2023-04-14T18:04:45.932Z,99745.00
2023-04-14T18:07:16.958Z,99739.00
2023-04-14T18:09:45.035Z,99746.00
2023-04-14T18:12:14.028Z,99748.00
2023-04-14T18:14:42.069Z,99754.00
2023-04-14T18:17:10.996Z,99762.00
2023-04-14T18:19:39.484Z,99771.00
2023-04-14T18:22:08.162Z,99761.00
2023-04-14T18:29:38.580Z,99769.00
2023-04-14T18:32:06.622Z,99769.00
2023-04-14T18:34:35.132Z,99767.00
2023-04-14T18:37:05.493Z,99771.00
2023-04-14T18:39:37.216Z,99771.00
2023-04-14T18:42:05.784Z,99767.00
2023-04-14T18:44:33.987Z,99775.00
2023-04-14T18:47:02.135Z,99772.00
2023-04-14T18:49:30.336Z,99768.00
2023-04-14T18:51:58.523Z,99773.00
2023-04-14T18:54:26.704Z,99769.00
2023-04-14T18:56:55.898Z,99777.00
2023-04-14T18:59:25.101Z,99778.00
2023-04-14T19:01:53.248Z,99786.00
2023-04-14T19:04:21.715Z,99782.00
2023-04-14T19:06:50.142Z,99775.00
2023-04-14T19:09:18.135Z,99783.00
2023-04-14T19:11:46.597Z,99784.00
2023-04-14T19:14:14.797Z,99790.00
2023-04-14T19:16:42.931Z,99788.00
2023-04-14T19:19:10.807Z,99787.00
2023-04-14T19:21:38.698Z,99783.00
2023-04-14T19:24:06.767Z,99781.00
2023-04-14T19:26:37.813Z,99784.00
2023-04-14T19:29:05.780Z,99771.00
2023-04-14T19:31:34.614Z,99776.00
2023-04-14T19:34:02.567Z,99769.00
2023-04-14T19:36:34.373Z,99776.00
2023-04-14T19:39:02.698Z,99775.00
2023-04-14T19:41:32.255Z,99772.00
2023-04-14T19:44:00.373Z,99774.00
2023-04-14T19:46:29.523Z,99765.00
2023-04-14T19:48:57.971Z,99768.00
2023-04-14T19:51:27.540Z,99761.00
2023-04-14T19:53:55.741Z,99767.00
2023-04-14T19:56:23.841Z,99762.00
2023-04-14T19:58:54.591Z,99758.00
2023-04-14T20:01:25.482Z,99766.00
2023-04-14T20:04:09.926Z,99760.00
2023-04-14T20:06:45.243Z,99761.00
2023-04-14T20:09:13.169Z,99764.00
2023-04-14T20:11:41.175Z,99757.00
2023-04-14T20:14:12.719Z,99756.00
2023-04-14T20:16:43.201Z,99758.00
2023-04-14T20:19:13.512Z,99751.00
2023-04-14T20:21:41.450Z,99754.00
2023-04-14T20:24:09.458Z,99755.00
2023-04-14T20:26:42.768Z,99744.00
2023-04-14T20:29:12.429Z,99748.00
2023-04-14T20:31:41.808Z,99750.00
2023-04-14T20:34:10.636Z,99743.00
2023-04-14T20:36:38.721Z,99753.00
2023-04-14T20:39:07.372Z,99742.00
2023-04-14T20:41:38.800Z,99752.00
2023-04-14T20:44:06.829Z,99751.00
2023-04-14T20:46:35.738Z,99753.00
2023-04-14T20:49:04.325Z,99757.00
2023-04-14T20:51:33.031Z,99755.00
2023-04-14T20:54:02.071Z,99752.00
2023-04-14T20:56:32.077Z,99746.00
2023-04-14T20:59:00.828Z,99743.00
2023-04-14T21:01:29.139Z,99741.00
2023-04-14T21:03:57.469Z,99749.00
2023-04-14T21:06:26.288Z,99743.00
2023-04-14T21:08:54.383Z,99737.00
2023-04-14T21:11:22.612Z,99737.00
2023-04-14T21:15:43.551Z,99744.00
2023-04-14T21:16:39.582Z,99742.00
2023-04-14T21:19:07.949Z,99737.00
2023-04-14T21:21:38.758Z,99732.00
2023-04-14T21:24:10.971Z,99733.00
2023-04-14T21:26:39.020Z,99737.00
2023-04-14T21:29:12.883Z,99737.00
2023-04-14T21:31:41.259Z,99744.00
2023-04-14T21:34:09.362Z,99737.00
2023-04-14T21:36:37.675Z,99749.00
2023-04-14T21:39:05.750Z,99743.00
2023-04-14T21:41:33.973Z,99746.00
2023-04-14T21:44:02.904Z,99737.00
2023-04-14T21:46:31.077Z,99746.00
2023-04-14T21:49:01.153Z,99736.00
2023-04-14T21:51:32.481Z,99732.00
2023-04-14T21:54:00.526Z,99748.00
2023-04-14T21:56:29.573Z,99735.00
2023-04-14T21:58:57.623Z,99727.00
2023-04-14T22:01:26.332Z,99726.00
2023-04-14T22:03:56.160Z,99730.00
2023-04-14T22:06:28.062Z,99721.00
2023-04-14T22:08:56.164Z,99714.00
2023-04-14T22:11:24.433Z,99718.00
2023-04-14T22:13:52.906Z,99714.00
2023-04-14T22:16:20.841Z,99711.00
2023-04-14T22:18:49.511Z,99715.00
2023-04-14T22:21:18.176Z,99722.00
2023-04-14T22:23:46.147Z,99721.00
2023-04-14T22:26:14.658Z,99719.00
2023-04-14T22:28:42.912Z,99721.00
2023-04-14T22:31:11.301Z,99721.00
2023-04-14T22:33:39.721Z,99713.00
2023-04-14T22:36:08.367Z,99714.00
2023-04-14T22:38:36.788Z,99714.00
2023-04-14T22:41:05.060Z,99719.00
2023-04-14T22:43:33.208Z,99710.00
2023-04-14T22:46:02.006Z,99717.00
2023-04-14T22:48:30.387Z,99695.00
2023-04-14T22:50:58.578Z,99711.00
2023-04-14T22:53:26.658Z,99708.00
2023-04-14T22:55:54.608Z,99712.00
2023-04-14T22:58:24.358Z,99718.00
2023-04-14T23:00:53.272Z,99712.00
2023-04-14T23:03:21.772Z,99708.00
2023-04-14T23:05:52.149Z,99700.00
2023-04-14T23:08:22.441Z,99700.00
2023-04-14T23:10:50.668Z,99697.00
2023-04-14T23:13:19.188Z,99697.00
2023-04-14T23:15:47.863Z,99697.00
2023-04-14T23:18:20.805Z,99691.00
2023-04-14T23:20:49.016Z,99688.00
2023-04-14T23:23:17.503Z,99686.00
2023-04-14T23:25:45.469Z,99689.00
2023-04-14T23:28:14.285Z,99689.00
2023-04-14T23:30:45.579Z,99689.00
2023-04-14T23:33:14.193Z,99689.00
2023-04-14T23:35:42.775Z,99688.00
2023-04-14T23:38:10.798Z,99692.00
2023-04-14T23:40:39.106Z,99696.00
2023-04-14T23:43:07.426Z,99692.00
2023-04-14T23:45:37.995Z,99689.00
2023-04-14T23:48:07.344Z,99693.00
2023-04-14T23:51:00.690Z,99682.00
2023-04-14T23:53:24.946Z,99681.00
2023-04-14T23:55:53.283Z,99685.00
2023-04-14T23:58:26.629Z,99679.00
